Time;durP1;ratioP1;P1;durP2;ratioP2;P2;SDS_P1;SDS_P2;PMS_P1;PMS_P2;Temp;Humidity;BMP_temperature;BMP_pressure;BME280_temperature;BME280_humidity;BME280_pressure;Samples;Min_cycle;Max_cycle;Signal;HPM_P1;HPM_P2
2022/02/03 00:00:36;;;;;;;10.73;5.47;;;9.40;99.90;;;;;;5115841;27;20268;-81
2022/02/03 00:03:13;;;;;;;9.93;4.60;;;9.40;99.90;;;;;;5116020;28;20224;-81
2022/02/03 00:05:47;;;;;;;7.37;4.47;;;9.30;99.90;;;;;;5115853;28;20211;-81
2022/02/03 00:08:28;;;;;;;6.63;4.13;;;9.30;99.90;;;;;;5116187;27;20204;-80
2022/02/03 00:16:59;;;;;;;9.17;3.70;;;9.30;99.90;;;;;;5115584;28;20199;-80
2022/02/03 00:22:19;;;;;;;6.45;3.22;;;9.30;99.90;;;;;;5115024;28;20416;-81
2022/02/03 00:25:07;;;;;;;4.73;2.50;;;9.30;99.90;;;;;;5115366;28;20561;-81
2022/02/03 00:27:44;;;;;;;5.10;2.50;;;9.20;99.90;;;;;;5115352;28;20196;-80
2022/02/03 00:30:14;;;;;;;5.07;2.40;;;9.10;99.90;;;;;;5116011;27;20227;-80
2022/02/03 00:35:46;;;;;;;6.13;1.93;;;9.20;99.90;;;;;;5115569;28;20216;-81
2022/02/03 00:38:27;;;;;;;8.57;2.13;;;9.10;99.90;;;;;;5115917;27;20196;-81
2022/02/03 00:49:24;;;;;;;3.87;1.93;;;9.00;99.90;;;;;;5115037;28;20610;-80
2022/02/03 00:51:58;;;;;;;5.20;2.20;;;9.00;99.90;;;;;;5114583;28;20196;-80
2022/02/03 00:54:26;;;;;;;4.07;1.77;;;9.10;99.90;;;;;;5114573;28;20671;-81
2022/02/03 00:57:01;;;;;;;5.27;2.23;;;9.10;99.90;;;;;;5114970;28;20200;-81
2022/02/03 00:59:33;;;;;;;4.63;1.83;;;9.00;99.90;;;;;;5114933;28;20200;-80
2022/02/03 01:02:05;;;;;;;5.97;1.93;;;9.10;99.90;;;;;;5114670;27;20219;-80
2022/02/03 01:04:38;;;;;;;4.83;1.60;;;9.00;99.90;;;;;;5114111;28;20215;-82
2022/02/03 01:07:10;;;;;;;6.10;2.10;;;9.10;99.90;;;;;;5113682;27;20757;-81
2022/02/03 01:09:47;;;;;;;9.83;2.23;;;9.20;99.90;;;;;;5113860;27;20239;-79
2022/02/03 01:12:22;;;;;;;4.53;1.47;;;9.30;99.90;;;;;;5113800;28;20600;-80
2022/02/03 01:14:56;;;;;;;6.67;2.10;;;9.30;99.90;;;;;;5113921;27;20657;-80
2022/02/03 01:17:35;;;;;;;6.23;1.97;;;9.30;99.90;;;;;;5114019;28;20188;-80
2022/02/03 01:20:40;;;;;;;6.67;1.80;;;9.40;99.90;;;;;;5113919;28;20224;-80
2022/02/03 01:34:34;;;;;;;7.30;2.10;;;9.20;99.90;;;;;;5113881;28;20233;-80
2022/02/03 01:37:22;;;;;;;5.73;1.60;;;9.10;99.90;;;;;;5113879;28;20242;-82
2022/02/03 01:45:37;;;;;;;5.57;1.70;;;9.10;99.90;;;;;;5114173;28;20654;-82
2022/02/03 01:48:20;;;;;;;7.63;1.87;;;9.10;99.90;;;;;;5113981;28;20232;-82
2022/02/03 01:53:38;;;;;;;8.60;1.90;;;9.20;99.90;;;;;;5113572;28;20211;-82
2022/02/03 01:56:07;;;;;;;2.97;1.37;;;9.30;99.90;;;;;;5112301;28;20265;-80
2022/02/03 01:58:43;;;;;;;6.33;1.60;;;9.30;99.90;;;;;;5113363;27;20272;-81
2022/02/03 02:01:14;;;;;;;4.50;1.70;;;9.30;99.90;;;;;;5113583;28;20302;-82
2022/02/03 02:03:43;;;;;;;3.83;2.03;;;9.30;99.90;;;;;;5113272;28;20231;-80
2022/02/03 02:06:34;;;;;;;4.47;1.50;;;9.20;99.90;;;;;;5112638;28;20651;-81
2022/02/03 02:09:08;;;;;;;5.60;1.80;;;9.20;99.90;;;;;;5079285;28;20212;-80
2022/02/03 02:11:48;;;;;;;5.10;1.70;;;9.20;99.90;;;;;;5113131;28;20678;-82
2022/02/03 02:36:50;;;;;;;5.93;1.73;;;9.40;99.90;;;;;;5113018;28;20304;-81
2022/02/03 02:37:24;;;;;;;8.87;2.07;;;9.20;99.90;;;;;;5136363;27;20249;-81
2022/02/03 02:40:28;;;;;;;4.37;1.37;;;9.40;99.90;;;;;;5137269;27;20698;-82
2022/02/03 02:43:02;;;;;;;5.40;1.80;;;9.20;99.90;;;;;;5137167;27;20606;-82
2022/02/03 02:45:53;;;;;;;5.07;2.13;;;9.20;99.90;;;;;;5137534;27;20191;-81
2022/02/03 02:48:39;;;;;;;4.70;2.00;;;9.10;99.90;;;;;;5137742;27;20203;-80
2022/02/03 02:51:12;;;;;;;5.23;2.50;;;9.20;99.90;;;;;;5137260;27;20616;-82
2022/02/03 02:54:04;;;;;;;5.03;2.33;;;9.10;99.90;;;;;;5137476;27;20215;-81
2022/02/03 02:56:51;;;;;;;5.78;2.92;;;9.30;99.90;;;;;;5136152;27;20431;-82
2022/02/03 02:59:45;;;;;;;5.63;3.00;;;9.30;99.90;;;;;;5137380;27;20282;-81
2022/02/03 03:02:46;;;;;;;7.40;3.60;;;9.40;99.90;;;;;;5137485;27;20204;-81
2022/02/03 03:30:23;;;;;;;9.77;5.73;;;8.90;99.90;;;;;;5137252;27;20275;-82
2022/02/03 03:33:06;;;;;;;9.88;7.00;;;8.90;99.90;;;;;;5137055;27;20415;-79
2022/02/03 03:35:39;;;;;;;9.17;6.63;;;8.90;99.90;;;;;;5136748;27;20187;-84
2022/02/03 03:38:10;;;;;;;12.50;7.40;;;8.80;99.90;;;;;;5137887;27;20215;-80
2022/02/03 03:40:42;;;;;;;7.90;7.03;;;8.90;99.90;;;;;;5137035;27;20227;-80
2022/02/03 03:43:14;;;;;;;9.07;6.03;;;8.90;99.90;;;;;;5137500;27;20314;-81
2022/02/03 03:45:52;;;;;;;9.37;6.30;;;8.90;99.90;;;;;;5137150;27;20207;-82
2022/02/03 03:48:21;;;;;;;8.67;6.50;;;8.80;99.90;;;;;;5136815;27;20205;-83
2022/02/03 03:50:51;;;;;;;11.20;6.27;;;8.90;99.90;;;;;;5136148;27;20578;-82
2022/02/03 03:53:26;;;;;;;14.40;6.70;;;8.90;99.90;;;;;;5136921;27;20208;-82
2022/02/03 03:56:03;;;;;;;11.37;6.33;;;8.90;99.90;;;;;;5136900;27;20206;-82
2022/02/03 03:59:03;;;;;;;10.30;5.90;;;9.00;99.90;;;;;;5137592;27;20271;-82
2022/02/03 04:34:04;;;;;;;7.73;6.23;;;8.90;99.90;;;;;;5135501;27;20196;-80
2022/02/03 04:37:19;;;;;;;9.90;6.33;;;8.80;99.90;;;;;;5136499;27;20188;-83
2022/02/03 04:40:24;;;;;;;12.53;6.60;;;8.70;99.90;;;;;;5135467;27;20314;-81
2022/02/03 04:43:48;;;;;;;8.77;6.60;;;8.70;99.90;;;;;;5135841;27;20574;-82
2022/02/03 04:55:55;;;;;;;10.67;6.40;;;8.80;99.90;;;;;;5141420;27;20199;-89
2022/02/03 04:59:19;;;;;;;12.33;7.07;;;8.80;99.90;;;;;;5144902;27;20206;-84
2022/02/03 05:02:17;;;;;;;10.63;6.60;;;8.80;99.90;;;;;;5143055;27;20234;-89
2022/02/03 05:05:10;;;;;;;9.77;7.30;;;8.80;99.90;;;;;;5135427;27;20216;-81
2022/02/03 05:08:06;;;;;;;9.57;6.73;;;8.90;99.90;;;;;;5135906;27;20299;-80
2022/02/03 05:11:10;;;;;;;11.80;6.77;;;8.80;99.90;;;;;;5135265;27;20208;-82
2022/02/03 05:14:24;;;;;;;8.83;6.83;;;8.70;99.90;;;;;;5135833;27;20214;-80
2022/02/03 05:17:34;;;;;;;12.90;7.67;;;8.70;99.90;;;;;;5135673;27;20225;-83
2022/02/03 05:20:26;;;;;;;13.00;6.90;;;8.80;99.90;;;;;;5135873;27;20219;-79
2022/02/03 05:23:41;;;;;;;9.50;7.57;;;8.60;99.90;;;;;;5134973;27;20621;-82
2022/02/03 05:26:41;;;;;;;12.20;7.87;;;8.60;99.90;;;;;;5134710;27;20658;-83
2022/02/03 05:32:56;;;;;;;12.10;7.70;;;8.70;99.90;;;;;;5135379;27;20619;-82
2022/02/03 05:44:44;;;;;;;14.03;7.67;;;8.80;99.90;;;;;;5134188;27;20682;-82
2022/02/03 05:47:45;;;;;;;11.73;7.70;;;8.80;99.90;;;;;;5134844;27;20248;-82
2022/02/03 05:50:32;;;;;;;12.27;7.40;;;8.70;99.90;;;;;;5134265;27;20290;-84
2022/02/03 06:01:50;;;;;;;10.13;7.03;;;8.50;99.90;;;;;;5125767;27;20208;-81
2022/02/03 06:04:33;;;;;;;10.80;7.30;;;8.60;99.90;;;;;;5113801;28;20249;-81
2022/02/03 06:15:33;;;;;;;10.97;7.03;;;8.60;99.90;;;;;;5113414;28;20566;-82
2022/02/03 06:23:56;;;;;;;13.80;8.23;;;8.60;99.90;;;;;;5115794;28;20297;-82
2022/02/03 06:29:11;;;;;;;13.60;7.53;;;8.50;99.90;;;;;;5119548;28;20245;-82
2022/02/03 06:31:41;;;;;;;11.07;7.07;;;8.40;99.90;;;;;;5118774;28;20265;-83
2022/02/03 06:34:08;;;;;;;11.87;7.50;;;8.40;99.90;;;;;;5117592;28;20628;-83
2022/02/03 06:36:37;;;;;;;12.20;7.83;;;8.50;99.90;;;;;;5117368;28;20311;-81
2022/02/03 06:39:13;;;;;;;10.27;6.70;;;8.60;99.90;;;;;;5115467;28;20321;-81
2022/02/03 06:41:42;;;;;;;13.13;6.73;;;8.50;99.90;;;;;;5115372;28;20232;-83
2022/02/03 06:44:12;;;;;;;12.88;6.97;;;8.40;99.90;;;;;;5116142;28;20451;-82
2022/02/03 06:46:46;;;;;;;10.67;6.33;;;8.40;99.90;;;;;;5116335;28;20188;-81
2022/02/03 06:49:20;;;;;;;9.87;5.87;;;8.40;99.90;;;;;;5116202;28;20196;-82
2022/02/03 06:51:55;;;;;;;10.90;5.50;;;8.30;99.90;;;;;;5116832;28;20271;-82
2022/02/03 06:54:31;;;;;;;8.77;5.43;;;8.40;99.90;;;;;;5115948;28;20213;-81
2022/02/03 06:57:10;;;;;;;5.97;5.00;;;8.60;99.90;;;;;;5114489;28;20208;-83
2022/02/03 06:59:44;;;;;;;7.93;4.73;;;8.40;99.90;;;;;;5115023;28;20226;-79
2022/02/03 07:02:13;;;;;;;6.70;4.80;;;8.40;99.90;;;;;;5114424;28;20615;-79
2022/02/03 07:04:44;;;;;;;13.97;4.73;;;8.30;99.90;;;;;;5114508;28;20225;-81
2022/02/03 07:07:14;;;;;;;15.67;5.77;;;8.40;99.90;;;;;;5114749;28;20268;-80
2022/02/03 07:09:45;;;;;;;8.53;4.80;;;8.40;99.90;;;;;;5117062;28;20528;-88
2022/02/03 07:12:19;;;;;;;13.23;4.90;;;8.40;99.90;;;;;;5118545;27;20201;-88
2022/02/03 07:14:50;;;;;;;8.30;4.00;;;8.40;99.90;;;;;;5119120;28;20242;-92
2022/02/03 07:17:25;;;;;;;6.73;3.50;;;8.40;99.90;;;;;;5118390;27;20287;-87
2022/02/03 07:20:00;;;;;;;9.57;4.23;;;8.50;99.90;;;;;;5118022;28;20279;-80
2022/02/03 07:22:27;;;;;;;8.40;4.10;;;8.40;99.90;;;;;;5116924;27;20433;-81
2022/02/03 07:24:56;;;;;;;8.73;4.27;;;8.20;99.90;;;;;;5117202;28;20733;-80
2022/02/03 07:27:29;;;;;;;6.77;3.70;;;8.30;99.90;;;;;;5121878;28;20246;-88
2022/02/03 07:29:56;;;;;;;12.87;4.27;;;8.30;99.90;;;;;;5122735;27;20658;-87
2022/02/03 07:32:26;;;;;;;9.43;3.97;;;8.30;99.90;;;;;;5119869;27;20215;-87
2022/02/03 07:34:56;;;;;;;6.90;4.03;;;8.40;99.90;;;;;;5121071;27;20204;-80
2022/02/03 07:37:26;;;;;;;7.97;3.87;;;8.40;99.90;;;;;;5117240;28;20200;-86
2022/02/03 07:39:53;;;;;;;11.03;3.90;;;8.40;99.90;;;;;;5119581;28;20224;-85
2022/02/03 07:42:24;;;;;;;10.87;4.33;;;8.50;99.90;;;;;;5117618;27;20196;-82
2022/02/03 07:44:52;;;;;;;11.50;4.00;;;8.40;99.90;;;;;;5116759;28;20255;-81
2022/02/03 07:47:19;;;;;;;9.70;4.30;;;8.30;99.90;;;;;;5117255;28;20203;-87
2022/02/03 07:49:50;;;;;;;5.20;3.67;;;8.30;99.90;;;;;;5117602;28;20655;-83
2022/02/03 07:52:20;;;;;;;10.77;4.03;;;8.40;99.90;;;;;;5117123;27;20204;-81
2022/02/03 07:54:48;;;;;;;11.20;4.93;;;8.30;99.90;;;;;;5117357;28;20200;-81
2022/02/03 07:57:22;;;;;;;8.73;4.40;;;8.30;99.90;;;;;;5117217;27;20192;-82
2022/02/03 07:59:55;;;;;;;12.30;4.20;;;8.40;99.90;;;;;;5115918;28;20203;-82
2022/02/03 08:02:22;;;;;;;8.80;4.30;;;8.30;99.90;;;;;;5116161;28;20212;-79
2022/02/03 08:04:51;;;;;;;11.10;4.83;;;8.30;99.90;;;;;;5116950;28;20266;-84
2022/02/03 08:07:21;;;;;;;10.60;4.13;;;8.30;99.90;;;;;;5116033;28;20644;-82
2022/02/03 08:09:56;;;;;;;9.93;4.57;;;8.30;99.90;;;;;;5118658;28;20201;-81
2022/02/03 08:12:33;;;;;;;11.80;4.10;;;8.30;99.90;;;;;;5119187;28;20207;-82
2022/02/03 08:15:02;;;;;;;8.83;4.23;;;8.40;99.90;;;;;;5120989;27;20189;-85
2022/02/03 08:17:35;;;;;;;11.00;4.93;;;8.40;99.90;;;;;;5121296;28;20533;-80
2022/02/03 08:20:08;;;;;;;9.53;3.83;;;8.20;99.90;;;;;;5116579;28;20210;-86
2022/02/03 08:22:42;;;;;;;11.43;4.37;;;8.20;99.90;;;;;;5130683;27;20223;-80
2022/02/03 08:25:15;;;;;;;8.10;4.20;;;8.20;99.90;;;;;;5119116;27;20228;-80
2022/02/03 08:28:02;;;;;;;9.63;4.20;;;8.20;99.90;;;;;;5126919;27;20191;-80
2022/02/03 08:30:38;;;;;;;9.23;4.60;;;8.20;99.90;;;;;;5126088;27;20191;-80
2022/02/03 08:33:05;;;;;;;12.20;3.80;;;8.30;99.90;;;;;;5133320;27;20203;-81
2022/02/03 08:35:37;;;;;;;7.87;4.20;;;8.20;99.90;;;;;;5122495;27;20184;-79
2022/02/03 08:41:01;;;;;;;12.23;4.68;;;8.30;99.90;;;;;;5114025;27;20907;-82
2022/02/03 08:43:30;;;;;;;9.50;3.70;;;8.30;99.90;;;;;;5115072;27;20235;-80
2022/02/03 08:45:58;;;;;;;14.47;4.40;;;8.30;99.90;;;;;;5114825;28;20728;-80
2022/02/03 08:48:24;;;;;;;8.60;4.10;;;8.30;99.90;;;;;;5114793;27;20197;-82
2022/02/03 08:50:55;;;;;;;14.13;4.70;;;8.40;99.90;;;;;;5123965;27;20198;-84
2022/02/03 08:53:32;;;;;;;7.27;3.57;;;8.40;99.90;;;;;;5125573;27;20283;-81
2022/02/03 08:56:10;;;;;;;9.77;4.10;;;8.40;99.90;;;;;;5121402;27;20210;-80
2022/02/03 09:30:11;;;;;;;13.27;4.37;;;8.40;99.90;;;;;;5125540;27;20203;-81
2022/02/03 09:38:26;;;;;;;10.03;4.27;;;8.10;99.90;;;;;;5072763;28;20750;-89
2022/02/03 09:54:58;;;;;;;11.40;4.63;;;8.30;99.90;;;;;;5114655;28;20195;-81
2022/02/03 09:57:53;;;;;;;11.53;4.43;;;8.50;99.90;;;;;;5114314;27;20200;-82
2022/02/03 10:00:39;;;;;;;12.47;4.10;;;8.50;99.90;;;;;;5113972;28;20197;-83
2022/02/03 10:03:12;;;;;;;11.73;4.60;;;8.60;99.90;;;;;;5113463;28;20204;-80
2022/02/03 10:05:56;;;;;;;12.07;5.47;;;8.60;99.90;;;;;;5113667;27;20589;-86
2022/02/03 10:08:29;;;;;;;9.03;4.37;;;8.70;99.90;;;;;;5114373;28;20194;-87
2022/02/03 10:11:15;;;;;;;14.73;6.30;;;8.60;99.90;;;;;;5116003;28;20204;-84
2022/02/03 10:13:51;;;;;;;10.63;5.30;;;8.50;99.90;;;;;;5115834;27;20211;-88
2022/02/03 10:16:24;;;;;;;10.37;4.87;;;8.50;99.90;;;;;;5115657;28;20204;-86
2022/02/03 10:19:03;;;;;;;9.20;4.90;;;8.40;99.90;;;;;;5115780;27;20212;-88
2022/02/03 10:21:32;;;;;;;9.87;4.90;;;8.30;99.90;;;;;;5115895;28;20200;-89
2022/02/03 10:24:02;;;;;;;12.80;4.77;;;8.30;99.90;;;;;;5118164;28;20201;-86
2022/02/03 10:26:34;;;;;;;15.83;5.23;;;8.40;99.90;;;;;;5114974;28;20236;-88
2022/02/03 10:29:04;;;;;;;14.77;4.93;;;8.40;99.90;;;;;;5115291;28;20260;-86
2022/02/03 10:31:37;;;;;;;12.50;4.70;;;8.50;99.90;;;;;;5114391;28;20211;-90
2022/02/03 10:34:13;;;;;;;10.23;4.80;;;8.50;99.90;;;;;;5113590;27;20295;-89
2022/02/03 10:36:50;;;;;;;9.73;4.10;;;8.60;99.90;;;;;;5116315;27;20204;-90
2022/02/03 10:42:35;;;;;;;9.93;4.13;;;8.60;99.90;;;;;;5118374;28;20210;-87
2022/02/03 10:45:22;;;;;;;12.33;4.93;;;8.60;99.90;;;;;;5120540;28;20248;-87
2022/02/03 10:50:56;;;;;;;9.97;4.60;;;8.50;99.90;;;;;;5120681;27;20263;-90
2022/02/03 10:53:43;;;;;;;12.33;4.60;;;8.70;99.90;;;;;;5127778;27;20196;-92
2022/02/03 10:56:22;;;;;;;10.67;4.43;;;8.70;99.90;;;;;;5136600;27;20207;-90
2022/02/03 10:59:09;;;;;;;11.13;5.17;;;8.60;99.90;;;;;;5132651;27;20200;-91
2022/02/03 11:02:07;;;;;;;10.47;3.90;;;8.50;99.90;;;;;;5121722;27;20276;-85
2022/02/03 11:07:28;;;;;;;15.07;4.20;;;8.70;99.90;;;;;;5121382;28;20265;-80
2022/02/03 11:10:09;;;;;;;8.53;3.60;;;8.90;99.90;;;;;;5118799;28;20283;-87
2022/02/03 11:12:39;;;;;;;11.03;4.17;;;8.90;99.90;;;;;;5123011;28;20200;-88
2022/02/03 11:15:10;;;;;;;8.50;4.70;;;8.70;99.90;;;;;;5118036;28;20197;-89
2022/02/03 11:17:39;;;;;;;11.77;3.73;;;8.80;99.90;;;;;;5117413;28;20572;-85
2022/02/03 11:20:07;;;;;;;15.90;4.33;;;8.80;99.90;;;;;;5117860;27;20189;-89
2022/02/03 11:22:47;;;;;;;13.93;4.30;;;8.80;99.90;;;;;;5118380;27;20243;-85
2022/02/03 11:25:20;;;;;;;15.37;5.63;;;8.90;99.90;;;;;;5116983;28;20216;-85
2022/02/03 11:28:10;;;;;;;10.03;4.30;;;8.90;99.90;;;;;;5116330;28;20249;-81
2022/02/03 11:33:56;;;;;;;10.43;4.80;;;8.90;99.90;;;;;;5115783;28;20192;-80
2022/02/03 11:37:00;;;;;;;11.33;5.00;;;9.00;99.90;;;;;;5129315;27;20195;-94
2022/02/03 11:39:59;;;;;;;9.47;4.47;;;8.90;99.90;;;;;;5120003;28;20564;-91
2022/02/03 11:45:44;;;;;;;14.13;4.87;;;9.10;99.90;;;;;;5081244;28;20284;-79
2022/02/03 11:48:43;;;;;;;14.87;6.20;;;9.10;99.90;;;;;;5118753;27;20208;-88
2022/02/03 11:51:56;;;;;;;13.80;4.60;;;9.10;99.90;;;;;;5121709;27;20573;-84
2022/02/03 11:54:54;;;;;;;9.48;4.63;;;9.20;99.90;;;;;;5116509;27;20432;-80
2022/02/03 11:57:46;;;;;;;8.93;3.73;;;9.20;99.90;;;;;;5125276;27;20200;-81
2022/02/03 12:14:47;;;;;;;10.57;4.60;;;9.20;99.90;;;;;;5091785;28;20201;-89
2022/02/03 12:20:11;;;;;;;11.47;4.60;;;9.10;99.90;;;;;;5092485;28;20297;-79
2022/02/03 12:25:42;;;;;;;8.57;3.83;;;8.80;99.90;;;;;;5092397;28;20265;-86
2022/02/03 12:28:22;;;;;;;9.97;4.17;;;8.80;99.90;;;;;;5090498;28;20223;-80
2022/02/03 12:39:13;;;;;;;11.60;4.90;;;8.70;99.90;;;;;;5093840;28;20208;-80
2022/02/03 12:41:45;;;;;;;9.83;5.37;;;8.80;99.90;;;;;;5072389;28;20206;-86
2022/02/03 12:44:20;;;;;;;11.27;5.37;;;8.80;99.90;;;;;;5070474;28;20193;-83
2022/02/03 12:46:47;;;;;;;9.50;4.80;;;8.70;99.90;;;;;;5070687;28;20320;-81
2022/02/03 12:49:13;;;;;;;8.80;5.40;;;8.70;99.90;;;;;;5071719;28;20197;-87
2022/02/03 12:51:40;;;;;;;10.13;5.50;;;8.60;99.90;;;;;;5063863;28;20218;-87
2022/02/03 12:54:12;;;;;;;18.27;5.97;;;8.50;99.90;;;;;;5049482;28;20209;-86
2022/02/03 12:56:42;;;;;;;13.53;5.77;;;8.50;99.90;;;;;;5049754;28;20547;-82
2022/02/03 12:59:14;;;;;;;12.17;6.03;;;8.40;99.90;;;;;;5054773;28;20222;-91
2022/02/03 13:01:45;;;;;;;9.63;5.43;;;8.40;99.90;;;;;;5054989;28;20216;-91
2022/02/03 13:04:16;;;;;;;11.23;6.30;;;8.40;99.90;;;;;;5060853;28;20213;-85
2022/02/03 13:06:52;;;;;;;16.37;7.30;;;8.40;99.90;;;;;;5048894;28;20226;-89
2022/02/03 13:09:27;;;;;;;11.67;6.63;;;8.40;99.90;;;;;;5049153;28;20611;-81
2022/02/03 13:12:14;;;;;;;13.37;7.23;;;8.30;99.90;;;;;;5051298;28;20197;-83
2022/02/03 13:14:49;;;;;;;14.40;6.90;;;8.30;99.90;;;;;;5053145;28;20314;-85
2022/02/03 13:17:21;;;;;;;11.53;6.50;;;8.30;99.90;;;;;;5066963;28;20206;-79
2022/02/03 13:19:55;;;;;;;12.53;6.43;;;8.30;99.90;;;;;;5042404;28;20209;-81
2022/02/03 13:22:31;;;;;;;13.87;6.50;;;8.40;99.90;;;;;;5044014;28;20201;-81
2022/02/03 13:25:06;;;;;;;10.23;6.33;;;8.50;99.90;;;;;;5042094;28;20645;-86
2022/02/03 13:27:46;;;;;;;16.97;6.90;;;8.70;99.90;;;;;;5055425;28;20302;-85
2022/02/03 13:30:37;;;;;;;15.63;6.53;;;8.80;99.90;;;;;;5055798;28;20206;-80
2022/02/03 13:33:05;;;;;;;13.87;7.30;;;9.00;99.90;;;;;;5055921;28;20282;-81
2022/02/03 13:35:47;;;;;;;14.90;6.50;;;9.00;99.90;;;;;;5055193;28;20683;-79
2022/02/03 13:38:24;;;;;;;18.93;7.27;;;9.00;99.90;;;;;;5053997;28;20209;-82
2022/02/03 13:41:10;;;;;;;14.67;7.17;;;8.90;99.90;;;;;;5054952;28;20210;-81
2022/02/03 13:43:40;;;;;;;12.63;7.20;;;8.90;99.90;;;;;;5054799;28;20218;-82
2022/02/03 13:46:26;;;;;;;9.97;7.20;;;8.80;99.90;;;;;;5055183;28;20567;-84
2022/02/03 13:48:54;;;;;;;16.10;8.23;;;8.80;99.90;;;;;;5045655;28;20468;-82
2022/02/03 13:51:25;;;;;;;12.03;8.10;;;8.80;99.90;;;;;;5048349;28;20539;-83
2022/02/03 13:54:02;;;;;;;14.30;8.17;;;8.70;99.90;;;;;;5044459;28;20359;-87
2022/02/03 14:12:03;;;;;;;14.50;9.50;;;8.40;99.90;;;;;;5012229;28;20650;-87
2022/02/03 14:23:26;;;;;;;16.53;10.23;;;8.40;99.90;;;;;;5132492;27;20559;-80
2022/02/03 14:28:38;;;;;;;16.80;12.07;;;8.30;99.90;;;;;;5132979;27;20682;-85
2022/02/03 14:31:07;;;;;;;19.27;10.90;;;8.30;99.90;;;;;;5134251;28;20202;-85
2022/02/03 14:33:36;;;;;;;18.93;12.00;;;8.30;99.90;;;;;;5133210;28;20321;-87
2022/02/03 14:36:08;;;;;;;22.03;12.03;;;8.40;99.90;;;;;;5133335;27;20200;-85
2022/02/03 14:38:41;;;;;;;23.40;12.87;;;8.30;99.90;;;;;;5134867;28;20276;-88
2022/02/03 14:41:15;;;;;;;19.30;13.00;;;8.30;99.90;;;;;;5144908;27;20200;-79
2022/02/03 14:43:43;;;;;;;22.17;13.20;;;8.30;99.90;;;;;;5149088;28;20294;-81
2022/02/03 14:46:13;;;;;;;20.00;12.80;;;8.30;99.90;;;;;;5147854;27;20230;-82
2022/02/03 14:48:42;;;;;;;24.23;13.50;;;8.30;99.90;;;;;;5149654;27;20208;-82
2022/02/03 14:51:12;;;;;;;15.30;12.43;;;8.40;99.90;;;;;;5139798;27;20203;-88
2022/02/03 14:59:05;;;;;;;25.97;12.87;;;8.30;99.90;;;;;;5131964;28;20599;-79
2022/02/03 15:01:32;;;;;;;16.93;12.40;;;8.20;99.90;;;;;;5131931;27;20297;-80
2022/02/03 15:04:01;;;;;;;16.67;12.40;;;8.20;99.90;;;;;;5132150;27;20204;-81
2022/02/03 15:06:36;;;;;;;18.20;15.27;;;8.30;99.90;;;;;;5131579;27;20511;-79
2022/02/03 15:09:31;;;;;;;17.77;13.40;;;8.40;99.90;;;;;;5132758;27;20202;-84
2022/02/03 15:12:04;;;;;;;17.27;12.57;;;8.40;99.90;;;;;;5132091;27;20722;-88
2022/02/03 15:14:32;;;;;;;18.43;13.00;;;8.40;99.90;;;;;;5132704;27;20631;-79
2022/02/03 15:16:59;;;;;;;21.17;12.93;;;8.40;99.90;;;;;;5133141;27;20684;-81
2022/02/03 15:19:26;;;;;;;18.77;12.53;;;8.40;99.90;;;;;;5131184;27;20350;-83
2022/02/03 15:21:54;;;;;;;17.50;12.90;;;8.50;99.90;;;;;;5131121;27;20196;-80
2022/02/03 15:24:21;;;;;;;16.40;12.13;;;8.50;99.90;;;;;;5131340;27;20207;-80
2022/02/03 15:26:48;;;;;;;15.37;12.87;;;8.50;99.90;;;;;;5131204;27;20215;-80
2022/02/03 15:29:15;;;;;;;14.90;11.50;;;8.40;99.90;;;;;;5129341;27;20196;-80
2022/02/03 15:31:42;;;;;;;20.63;12.60;;;8.30;99.90;;;;;;5116270;28;20321;-81
2022/02/03 15:34:12;;;;;;;18.53;12.57;;;8.30;99.90;;;;;;5116486;28;20303;-80
2022/02/03 15:36:46;;;;;;;15.37;12.53;;;8.30;99.90;;;;;;5116203;28;20205;-79
2022/02/03 15:39:20;;;;;;;16.93;12.60;;;8.40;99.90;;;;;;5115699;28;20230;-79
2022/02/03 15:41:48;;;;;;;18.63;12.33;;;8.40;99.90;;;;;;5116021;28;20234;-80
2022/02/03 15:44:15;;;;;;;19.52;14.80;;;8.30;99.90;;;;;;5114834;28;20803;-79
2022/02/03 15:46:57;;;;;;;16.00;13.90;;;8.40;99.90;;;;;;5116834;28;20186;-81
2022/02/03 15:49:45;;;;;;;17.23;13.17;;;8.30;99.90;;;;;;5116930;27;20200;-79
2022/02/03 16:03:29;;;;;;;18.13;14.30;;;8.30;99.90;;;;;;5117060;28;20298;-84
2022/02/03 16:16:56;;;;;;;23.80;15.23;;;8.20;99.90;;;;;;5112465;28;20232;-79
2022/02/03 16:19:31;;;;;;;18.83;14.77;;;8.10;99.90;;;;;;5114709;28;20230;-79
2022/02/03 16:22:02;;;;;;;18.23;14.17;;;8.20;99.90;;;;;;5115229;28;20204;-85
2022/02/03 16:24:41;;;;;;;22.13;17.23;;;8.20;99.90;;;;;;5115365;28;20181;-80
2022/02/03 16:41:12;;;;;;;18.03;14.30;;;8.30;99.90;;;;;;5114600;28;20617;-79
2022/02/03 16:50:21;;;;;;;16.60;13.77;;;8.30;99.90;;;;;;5114063;28;20811;-79
2022/02/03 16:54:57;;;;;;;16.87;14.37;;;8.30;99.90;;;;;;5113990;28;20209;-78
2022/02/03 16:57:26;;;;;;;17.87;15.73;;;8.30;99.90;;;;;;5114790;28;20566;-78
2022/02/03 16:59:58;;;;;;;20.23;17.95;;;8.20;99.90;;;;;;5113430;28;20830;-82
2022/02/03 17:02:25;;;;;;;21.13;16.53;;;8.30;99.90;;;;;;5114253;28;20296;-78
2022/02/03 17:04:53;;;;;;;24.77;16.07;;;8.30;99.90;;;;;;5114023;27;20639;-79
2022/02/03 17:07:21;;;;;;;20.90;16.57;;;8.30;99.90;;;;;;5114135;28;20612;-81
2022/02/03 17:09:49;;;;;;;19.80;16.00;;;8.30;99.90;;;;;;5114417;28;20571;-83
2022/02/03 17:12:16;;;;;;;20.20;16.10;;;8.30;99.90;;;;;;5114695;28;20235;-84
2022/02/03 17:14:44;;;;;;;21.17;16.67;;;8.40;99.90;;;;;;5114635;28;20657;-80
2022/02/03 17:17:12;;;;;;;21.33;16.00;;;8.50;99.90;;;;;;5088112;28;20353;-82
2022/02/03 17:19:43;;;;;;;18.77;15.37;;;8.30;99.90;;;;;;5082381;28;20231;-86
2022/02/03 17:22:11;;;;;;;19.70;17.13;;;8.10;99.90;;;;;;5079221;28;20210;-83
2022/02/03 17:24:43;;;;;;;21.73;16.40;;;8.00;99.90;;;;;;5073514;28;20669;-86
2022/02/03 17:27:19;;;;;;;18.10;16.13;;;8.00;99.90;;;;;;5073325;28;20263;-83
2022/02/03 17:29:55;;;;;;;21.27;16.50;;;8.00;99.90;;;;;;5078926;28;20200;-81
2022/02/03 17:44:57;;;;;;;22.70;16.60;;;8.00;99.90;;;;;;5073359;28;20209;-80
2022/02/03 18:03:08;;;;;;;23.60;17.23;;;8.10;99.90;;;;;;5072555;28;20238;-81
2022/02/03 18:11:23;;;;;;;20.97;17.63;;;8.30;99.90;;;;;;5063291;28;20193;-78
2022/02/03 18:30:27;;;;;;;20.83;16.57;;;8.30;99.90;;;;;;5072229;28;20205;-81
2022/02/03 18:33:27;;;;;;;20.57;16.57;;;8.10;99.90;;;;;;5072726;28;20223;-80
2022/02/03 18:36:05;;;;;;;20.23;17.10;;;8.10;99.90;;;;;;5072212;28;20206;-79
2022/02/03 18:47:40;;;;;;;20.77;16.73;;;8.10;99.90;;;;;;5111529;28;20223;-78
2022/02/03 18:52:34;;;;;;;21.67;15.97;;;8.10;99.90;;;;;;5095461;28;20286;-79
2022/02/03 18:55:10;;;;;;;23.60;19.85;;;8.20;99.90;;;;;;5111882;28;20783;-79
2022/02/03 18:57:46;;;;;;;23.60;17.73;;;8.30;99.90;;;;;;5112685;28;20245;-80
2022/02/03 19:03:14;;;;;;;22.37;17.73;;;8.10;99.90;;;;;;5112364;28;20192;-82
2022/02/03 19:25:36;;;;;;;27.33;20.13;;;8.00;99.90;;;;;;5116212;28;20238;-78
2022/02/03 20:01:44;;;;;;;22.43;17.87;;;8.20;99.90;;;;;;5115869;28;20663;-80
2022/02/03 20:04:33;;;;;;;22.20;17.37;;;8.10;99.90;;;;;;5115357;28;20261;-83
2022/02/03 20:07:12;;;;;;;21.87;16.37;;;8.20;99.90;;;;;;5115844;28;20218;-82
2022/02/03 20:12:20;;;;;;;22.40;18.63;;;8.20;99.90;;;;;;5095377;28;20409;-81
2022/02/03 20:14:49;;;;;;;22.97;16.70;;;8.30;99.90;;;;;;5114562;28;20200;-81
2022/02/03 20:17:19;;;;;;;22.17;16.77;;;8.30;99.90;;;;;;5114684;28;20565;-81
2022/02/03 20:19:46;;;;;;;18.30;16.20;;;8.30;99.90;;;;;;5114977;28;20235;-78
2022/02/03 20:22:13;;;;;;;20.50;16.70;;;8.20;99.90;;;;;;5115464;28;20199;-79
2022/02/03 20:24:41;;;;;;;20.30;15.90;;;8.20;99.90;;;;;;5114890;28;20655;-80
2022/02/03 20:27:08;;;;;;;21.33;15.90;;;8.20;99.90;;;;;;5115166;28;20201;-81
2022/02/03 20:29:35;;;;;;;20.63;16.33;;;8.20;99.90;;;;;;5115110;28;20200;-79
2022/02/03 20:32:02;;;;;;;19.57;15.13;;;8.20;99.90;;;;;;5114988;28;20202;-79
2022/02/03 20:34:31;;;;;;;21.23;15.83;;;8.20;99.90;;;;;;5115082;28;20200;-82
2022/02/03 20:36:57;;;;;;;22.33;16.60;;;8.20;99.90;;;;;;5115023;28;20207;-82
2022/02/03 20:39:24;;;;;;;23.97;16.07;;;8.20;99.90;;;;;;5114595;28;20217;-79
2022/02/03 20:41:51;;;;;;;19.90;15.90;;;8.30;99.90;;;;;;5114609;28;20235;-81
2022/02/03 20:44:18;;;;;;;24.57;17.23;;;8.30;99.90;;;;;;5114053;28;20664;-80
2022/02/03 20:46:46;;;;;;;21.13;16.87;;;8.30;99.90;;;;;;5113864;28;20531;-82
2022/02/03 20:49:13;;;;;;;23.57;16.33;;;8.40;99.90;;;;;;5114508;28;20207;-80
2022/02/03 20:51:43;;;;;;;24.02;20.88;;;8.30;99.90;;;;;;5113821;28;20460;-81
2022/02/03 20:54:10;;;;;;;22.73;17.63;;;8.40;99.90;;;;;;5114408;28;20196;-79
2022/02/03 20:56:38;;;;;;;19.93;17.07;;;8.40;99.90;;;;;;5113847;28;20211;-79
2022/02/03 20:59:07;;;;;;;21.57;17.13;;;8.30;99.90;;;;;;5113834;28;20628;-79
2022/02/03 21:01:36;;;;;;;23.20;17.40;;;8.30;99.90;;;;;;5101521;28;20201;-79
2022/02/03 21:04:08;;;;;;;23.00;17.80;;;8.30;99.90;;;;;;5093916;28;20224;-80
2022/02/03 21:06:35;;;;;;;24.20;18.17;;;8.30;99.90;;;;;;5092806;28;20779;-79
2022/02/03 21:09:06;;;;;;;20.30;16.70;;;8.50;99.90;;;;;;5093501;28;20238;-80
2022/02/03 21:11:33;;;;;;;21.50;16.17;;;8.30;99.90;;;;;;5093675;28;20610;-78
2022/02/03 21:14:02;;;;;;;25.30;17.90;;;8.30;99.90;;;;;;5093097;28;20200;-80